sensor_id;sensor_type;location;lat;lon;timestamp;P1;durP1;ratioP1;P2;durP2;ratioP2
30892;SDS011;17595;50.884;4.346;2022-10-24T00:02:16;9.20;;;3.67;;
30892;SDS011;17595;50.884;4.346;2022-10-24T00:04:42;6.88;;;2.92;;
30892;SDS011;17595;50.884;4.346;2022-10-24T00:07:08;11.52;;;4.10;;
30892;SDS011;17595;50.884;4.346;2022-10-24T00:09:34;9.20;;;2.67;;
30892;SDS011;17595;50.884;4.346;2022-10-24T00:12:01;8.35;;;3.22;;
30892;SDS011;17595;50.884;4.346;2022-10-24T00:14:27;6.82;;;2.33;;
30892;SDS011;17595;50.884;4.346;2022-10-24T00:16:53;11.52;;;4.35;;
30892;SDS011;17595;50.884;4.346;2022-10-24T00:19:19;5.95;;;2.33;;
30892;SDS011;17595;50.884;4.346;2022-10-24T00:21:45;6.65;;;2.53;;
30892;SDS011;17595;50.884;4.346;2022-10-24T00:24:11;7.03;;;2.45;;
30892;SDS011;17595;50.884;4.346;2022-10-24T00:26:37;5.43;;;2.25;;
30892;SDS011;17595;50.884;4.346;2022-10-24T00:29:03;7.53;;;2.33;;
30892;SDS011;17595;50.884;4.346;2022-10-24T00:31:29;6.50;;;2.35;;
30892;SDS011;17595;50.884;4.346;2022-10-24T00:33:55;8.23;;;2.40;;
30892;SDS011;17595;50.884;4.346;2022-10-24T00:36:22;9.57;;;3.50;;
30892;SDS011;17595;50.884;4.346;2022-10-24T00:38:48;7.75;;;3.15;;
30892;SDS011;17595;50.884;4.346;2022-10-24T00:41:37;5.35;;;2.42;;
30892;SDS011;17595;50.884;4.346;2022-10-24T00:46:54;5.15;;;2.00;;
30892;SDS011;17595;50.884;4.346;2022-10-24T00:49:27;10.77;;;2.05;;
30892;SDS011;17595;50.884;4.346;2022-10-24T00:51:57;6.43;;;1.92;;
30892;SDS011;17595;50.884;4.346;2022-10-24T00:54:26;4.55;;;1.48;;
30892;SDS011;17595;50.884;4.346;2022-10-24T00:56:55;5.93;;;1.75;;
30892;SDS011;17595;50.884;4.346;2022-10-24T00:59:31;6.53;;;2.83;;
30892;SDS011;17595;50.884;4.346;2022-10-24T01:01:59;11.02;;;2.00;;
30892;SDS011;17595;50.884;4.346;2022-10-24T01:04:24;9.02;;;2.40;;
30892;SDS011;17595;50.884;4.346;2022-10-24T01:12:30;8.98;;;1.80;;
30892;SDS011;17595;50.884;4.346;2022-10-24T01:15:16;7.32;;;2.90;;
30892;SDS011;17595;50.884;4.346;2022-10-24T01:23:34;7.50;;;1.40;;
30892;SDS011;17595;50.884;4.346;2022-10-24T01:26:34;10.83;;;2.90;;
30892;SDS011;17595;50.884;4.346;2022-10-24T01:31:44;7.22;;;1.45;;
30892;SDS011;17595;50.884;4.346;2022-10-24T01:34:16;4.50;;;1.58;;
30892;SDS011;17595;50.884;4.346;2022-10-24T01:39:30;5.47;;;1.40;;
30892;SDS011;17595;50.884;4.346;2022-10-24T01:42:01;6.07;;;1.60;;
30892;SDS011;17595;50.884;4.346;2022-10-24T01:44:34;8.48;;;1.75;;
30892;SDS011;17595;50.884;4.346;2022-10-24T01:47:10;8.77;;;1.58;;
30892;SDS011;17595;50.884;4.346;2022-10-24T01:49:48;3.40;;;1.23;;
30892;SDS011;17595;50.884;4.346;2022-10-24T01:52:19;7.30;;;1.88;;
30892;SDS011;17595;50.884;4.346;2022-10-24T01:54:45;4.93;;;1.30;;
30892;SDS011;17595;50.884;4.346;2022-10-24T01:57:12;4.60;;;1.45;;
30892;SDS011;17595;50.884;4.346;2022-10-24T01:59:40;9.85;;;1.60;;
30892;SDS011;17595;50.884;4.346;2022-10-24T02:07:33;7.85;;;1.58;;
30892;SDS011;17595;50.884;4.346;2022-10-24T02:10:04;9.25;;;1.83;;
30892;SDS011;17595;50.884;4.346;2022-10-24T02:12:32;4.93;;;1.77;;
30892;SDS011;17595;50.884;4.346;2022-10-24T02:15:04;4.22;;;1.63;;
30892;SDS011;17595;50.884;4.346;2022-10-24T02:17:35;6.57;;;1.58;;
30892;SDS011;17595;50.884;4.346;2022-10-24T02:20:00;8.23;;;1.58;;
30892;SDS011;17595;50.884;4.346;2022-10-24T02:22:37;8.05;;;1.25;;
30892;SDS011;17595;50.884;4.346;2022-10-24T02:25:12;8.95;;;1.77;;
30892;SDS011;17595;50.884;4.346;2022-10-24T02:28:01;6.32;;;2.08;;
30892;SDS011;17595;50.884;4.346;2022-10-24T02:30:33;9.23;;;1.60;;
30892;SDS011;17595;50.884;4.346;2022-10-24T02:33:03;5.05;;;1.77;;
30892;SDS011;17595;50.884;4.346;2022-10-24T02:35:30;8.77;;;1.77;;
30892;SDS011;17595;50.884;4.346;2022-10-24T02:38:11;5.95;;;1.60;;
30892;SDS011;17595;50.884;4.346;2022-10-24T02:40:45;9.07;;;1.55;;
30892;SDS011;17595;50.884;4.346;2022-10-24T02:43:12;4.75;;;1.63;;
30892;SDS011;17595;50.884;4.346;2022-10-24T02:45:38;5.00;;;1.38;;
30892;SDS011;17595;50.884;4.346;2022-10-24T02:48:05;4.63;;;1.30;;
30892;SDS011;17595;50.884;4.346;2022-10-24T02:50:35;7.22;;;1.55;;
30892;SDS011;17595;50.884;4.346;2022-10-24T02:53:03;5.38;;;1.92;;
30892;SDS011;17595;50.884;4.346;2022-10-24T02:55:29;4.32;;;1.83;;
30892;SDS011;17595;50.884;4.346;2022-10-24T02:57:55;7.75;;;1.63;;
30892;SDS011;17595;50.884;4.346;2022-10-24T03:00:20;8.27;;;1.90;;
30892;SDS011;17595;50.884;4.346;2022-10-24T03:02:46;6.45;;;1.52;;
30892;SDS011;17595;50.884;4.346;2022-10-24T03:05:12;7.35;;;1.90;;
30892;SDS011;17595;50.884;4.346;2022-10-24T03:07:37;4.80;;;2.00;;
30892;SDS011;17595;50.884;4.346;2022-10-24T03:10:03;6.65;;;1.77;;
30892;SDS011;17595;50.884;4.346;2022-10-24T03:12:29;5.97;;;1.80;;
30892;SDS011;17595;50.884;4.346;2022-10-24T03:14:54;4.40;;;1.67;;
30892;SDS011;17595;50.884;4.346;2022-10-24T03:17:20;8.18;;;1.50;;
30892;SDS011;17595;50.884;4.346;2022-10-24T03:19:47;10.35;;;1.80;;
30892;SDS011;17595;50.884;4.346;2022-10-24T03:22:13;7.53;;;1.80;;
30892;SDS011;17595;50.884;4.346;2022-10-24T03:24:39;8.13;;;1.70;;
30892;SDS011;17595;50.884;4.346;2022-10-24T03:27:04;8.88;;;1.48;;
30892;SDS011;17595;50.884;4.346;2022-10-24T03:29:30;11.00;;;1.75;;
30892;SDS011;17595;50.884;4.346;2022-10-24T03:31:55;6.88;;;1.45;;
30892;SDS011;17595;50.884;4.346;2022-10-24T03:34:21;6.82;;;1.70;;
30892;SDS011;17595;50.884;4.346;2022-10-24T03:36:46;11.35;;;1.85;;
30892;SDS011;17595;50.884;4.346;2022-10-24T03:39:12;9.63;;;1.65;;
30892;SDS011;17595;50.884;4.346;2022-10-24T03:41:38;10.10;;;1.88;;
30892;SDS011;17595;50.884;4.346;2022-10-24T03:44:03;9.13;;;1.58;;
30892;SDS011;17595;50.884;4.346;2022-10-24T03:46:29;5.45;;;1.70;;
30892;SDS011;17595;50.884;4.346;2022-10-24T03:48:54;7.50;;;2.45;;
30892;SDS011;17595;50.884;4.346;2022-10-24T03:51:20;9.30;;;2.03;;
30892;SDS011;17595;50.884;4.346;2022-10-24T03:53:45;10.75;;;2.17;;
30892;SDS011;17595;50.884;4.346;2022-10-24T03:56:11;9.85;;;1.40;;
30892;SDS011;17595;50.884;4.346;2022-10-24T03:58:36;8.38;;;1.65;;
30892;SDS011;17595;50.884;4.346;2022-10-24T04:01:03;8.35;;;1.92;;
30892;SDS011;17595;50.884;4.346;2022-10-24T04:03:28;9.73;;;1.77;;
30892;SDS011;17595;50.884;4.346;2022-10-24T04:05:54;7.30;;;1.58;;
30892;SDS011;17595;50.884;4.346;2022-10-24T04:08:20;4.70;;;1.50;;
30892;SDS011;17595;50.884;4.346;2022-10-24T04:10:47;10.80;;;1.85;;
30892;SDS011;17595;50.884;4.346;2022-10-24T04:13:13;8.45;;;1.75;;
30892;SDS011;17595;50.884;4.346;2022-10-24T04:15:38;6.53;;;2.10;;
30892;SDS011;17595;50.884;4.346;2022-10-24T04:18:04;8.07;;;2.05;;
30892;SDS011;17595;50.884;4.346;2022-10-24T04:20:30;10.63;;;1.85;;
30892;SDS011;17595;50.884;4.346;2022-10-24T04:22:55;11.35;;;1.88;;
30892;SDS011;17595;50.884;4.346;2022-10-24T04:25:21;9.77;;;1.77;;
30892;SDS011;17595;50.884;4.346;2022-10-24T04:27:46;8.98;;;1.98;;
30892;SDS011;17595;50.884;4.346;2022-10-24T04:30:13;10.85;;;2.22;;
30892;SDS011;17595;50.884;4.346;2022-10-24T04:32:39;13.52;;;2.17;;
30892;SDS011;17595;50.884;4.346;2022-10-24T04:35:04;9.18;;;1.88;;
30892;SDS011;17595;50.884;4.346;2022-10-24T04:37:30;12.52;;;2.10;;
30892;SDS011;17595;50.884;4.346;2022-10-24T04:39:56;10.82;;;2.03;;
30892;SDS011;17595;50.884;4.346;2022-10-24T04:42:22;8.02;;;1.33;;
30892;SDS011;17595;50.884;4.346;2022-10-24T04:44:49;10.23;;;1.90;;
30892;SDS011;17595;50.884;4.346;2022-10-24T04:47:14;7.95;;;1.65;;
30892;SDS011;17595;50.884;4.346;2022-10-24T04:49:40;12.65;;;2.20;;
30892;SDS011;17595;50.884;4.346;2022-10-24T04:52:06;11.50;;;2.08;;
30892;SDS011;17595;50.884;4.346;2022-10-24T04:54:31;10.30;;;1.65;;
30892;SDS011;17595;50.884;4.346;2022-10-24T04:56:57;16.60;;;1.98;;
30892;SDS011;17595;50.884;4.346;2022-10-24T04:59:23;14.77;;;2.15;;
30892;SDS011;17595;50.884;4.346;2022-10-24T05:01:48;9.00;;;1.88;;
30892;SDS011;17595;50.884;4.346;2022-10-24T05:04:14;14.38;;;2.28;;
30892;SDS011;17595;50.884;4.346;2022-10-24T05:06:40;9.18;;;2.25;;
30892;SDS011;17595;50.884;4.346;2022-10-24T05:09:05;12.75;;;2.15;;
30892;SDS011;17595;50.884;4.346;2022-10-24T05:11:31;15.00;;;2.45;;
30892;SDS011;17595;50.884;4.346;2022-10-24T05:13:57;15.57;;;2.38;;
30892;SDS011;17595;50.884;4.346;2022-10-24T05:16:22;11.85;;;2.22;;
30892;SDS011;17595;50.884;4.346;2022-10-24T05:18:48;11.32;;;2.05;;
30892;SDS011;17595;50.884;4.346;2022-10-24T05:21:14;8.90;;;2.28;;
30892;SDS011;17595;50.884;4.346;2022-10-24T05:23:39;13.98;;;2.40;;
30892;SDS011;17595;50.884;4.346;2022-10-24T05:26:05;13.88;;;2.03;;
30892;SDS011;17595;50.884;4.346;2022-10-24T05:28:31;8.88;;;1.77;;
30892;SDS011;17595;50.884;4.346;2022-10-24T05:30:58;25.08;;;3.20;;
30892;SDS011;17595;50.884;4.346;2022-10-24T05:33:23;9.43;;;2.00;;
30892;SDS011;17595;50.884;4.346;2022-10-24T05:35:49;9.75;;;1.98;;
30892;SDS011;17595;50.884;4.346;2022-10-24T05:38:16;10.73;;;2.30;;
30892;SDS011;17595;50.884;4.346;2022-10-24T05:40:41;12.00;;;1.92;;
30892;SDS011;17595;50.884;4.346;2022-10-24T05:43:07;10.85;;;2.35;;
30892;SDS011;17595;50.884;4.346;2022-10-24T05:45:33;11.07;;;1.85;;
30892;SDS011;17595;50.884;4.346;2022-10-24T05:47:59;13.50;;;2.10;;
30892;SDS011;17595;50.884;4.346;2022-10-24T05:50:25;10.25;;;2.00;;
30892;SDS011;17595;50.884;4.346;2022-10-24T05:52:51;11.48;;;2.05;;
30892;SDS011;17595;50.884;4.346;2022-10-24T05:55:17;11.70;;;2.47;;
30892;SDS011;17595;50.884;4.346;2022-10-24T05:57:43;10.85;;;2.50;;
30892;SDS011;17595;50.884;4.346;2022-10-24T06:00:10;10.52;;;2.42;;
30892;SDS011;17595;50.884;4.346;2022-10-24T06:05:04;11.32;;;2.20;;
30892;SDS011;17595;50.884;4.346;2022-10-24T06:07:30;11.23;;;1.98;;
30892;SDS011;17595;50.884;4.346;2022-10-24T06:09:56;13.32;;;2.55;;
30892;SDS011;17595;50.884;4.346;2022-10-24T06:12:22;19.02;;;2.67;;
30892;SDS011;17595;50.884;4.346;2022-10-24T06:14:47;15.85;;;2.75;;
30892;SDS011;17595;50.884;4.346;2022-10-24T06:17:13;12.57;;;2.35;;
30892;SDS011;17595;50.884;4.346;2022-10-24T06:19:39;15.27;;;2.67;;
30892;SDS011;17595;50.884;4.346;2022-10-24T06:22:04;11.95;;;2.88;;
30892;SDS011;17595;50.884;4.346;2022-10-24T06:24:32;13.13;;;2.78;;
30892;SDS011;17595;50.884;4.346;2022-10-24T06:27:02;5.47;;;1.60;;
30892;SDS011;17595;50.884;4.346;2022-10-24T06:29:28;12.18;;;1.95;;
30892;SDS011;17595;50.884;4.346;2022-10-24T06:31:54;9.85;;;2.35;;
30892;SDS011;17595;50.884;4.346;2022-10-24T06:34:19;15.95;;;2.60;;
30892;SDS011;17595;50.884;4.346;2022-10-24T06:36:45;11.48;;;1.70;;
30892;SDS011;17595;50.884;4.346;2022-10-24T06:39:10;13.50;;;2.10;;
30892;SDS011;17595;50.884;4.346;2022-10-24T06:41:36;5.88;;;1.20;;
30892;SDS011;17595;50.884;4.346;2022-10-24T06:44:02;8.77;;;2.17;;
30892;SDS011;17595;50.884;4.346;2022-10-24T06:46:28;11.20;;;2.03;;
30892;SDS011;17595;50.884;4.346;2022-10-24T06:48:54;8.57;;;1.58;;
30892;SDS011;17595;50.884;4.346;2022-10-24T06:51:19;11.27;;;2.33;;
30892;SDS011;17595;50.884;4.346;2022-10-24T06:53:45;12.32;;;1.65;;
30892;SDS011;17595;50.884;4.346;2022-10-24T06:56:11;13.48;;;1.85;;
30892;SDS011;17595;50.884;4.346;2022-10-24T06:58:37;10.95;;;2.08;;
30892;SDS011;17595;50.884;4.346;2022-10-24T07:01:07;9.02;;;1.42;;
30892;SDS011;17595;50.884;4.346;2022-10-24T07:03:51;12.70;;;2.33;;
30892;SDS011;17595;50.884;4.346;2022-10-24T07:06:19;9.02;;;1.98;;
30892;SDS011;17595;50.884;4.346;2022-10-24T07:08:46;13.93;;;2.90;;
30892;SDS011;17595;50.884;4.346;2022-10-24T07:11:12;12.27;;;2.13;;
30892;SDS011;17595;50.884;4.346;2022-10-24T07:13:38;14.60;;;2.33;;
30892;SDS011;17595;50.884;4.346;2022-10-24T07:16:04;11.65;;;2.22;;
30892;SDS011;17595;50.884;4.346;2022-10-24T07:18:31;16.83;;;2.58;;
30892;SDS011;17595;50.884;4.346;2022-10-24T07:21:00;14.60;;;2.90;;
30892;SDS011;17595;50.884;4.346;2022-10-24T07:23:29;7.32;;;2.08;;
30892;SDS011;17595;50.884;4.346;2022-10-24T07:25:59;14.32;;;2.55;;
30892;SDS011;17595;50.884;4.346;2022-10-24T07:28:26;11.27;;;2.47;;
30892;SDS011;17595;50.884;4.346;2022-10-24T07:30:51;11.77;;;2.15;;
30892;SDS011;17595;50.884;4.346;2022-10-24T07:33:17;12.00;;;2.63;;
30892;SDS011;17595;50.884;4.346;2022-10-24T07:35:42;10.98;;;2.08;;
30892;SDS011;17595;50.884;4.346;2022-10-24T07:38:08;13.75;;;2.60;;
30892;SDS011;17595;50.884;4.346;2022-10-24T07:40:34;14.30;;;2.28;;
30892;SDS011;17595;50.884;4.346;2022-10-24T07:42:59;11.90;;;2.75;;
30892;SDS011;17595;50.884;4.346;2022-10-24T07:45:25;15.52;;;3.22;;
30892;SDS011;17595;50.884;4.346;2022-10-24T07:47:52;11.45;;;2.00;;
30892;SDS011;17595;50.884;4.346;2022-10-24T07:50:18;12.50;;;2.28;;
30892;SDS011;17595;50.884;4.346;2022-10-24T07:52:43;11.70;;;2.45;;
30892;SDS011;17595;50.884;4.346;2022-10-24T07:55:09;13.80;;;2.67;;
30892;SDS011;17595;50.884;4.346;2022-10-24T07:57:34;13.07;;;2.30;;
30892;SDS011;17595;50.884;4.346;2022-10-24T08:00:00;17.70;;;2.92;;
30892;SDS011;17595;50.884;4.346;2022-10-24T08:02:26;20.75;;;3.40;;
30892;SDS011;17595;50.884;4.346;2022-10-24T08:04:51;15.90;;;2.90;;
30892;SDS011;17595;50.884;4.346;2022-10-24T08:07:17;12.20;;;2.50;;
30892;SDS011;17595;50.884;4.346;2022-10-24T08:09:43;16.85;;;3.22;;
30892;SDS011;17595;50.884;4.346;2022-10-24T08:12:11;18.27;;;2.60;;
30892;SDS011;17595;50.884;4.346;2022-10-24T08:14:37;19.02;;;3.72;;
30892;SDS011;17595;50.884;4.346;2022-10-24T08:17:04;14.15;;;2.72;;
30892;SDS011;17595;50.884;4.346;2022-10-24T08:19:30;17.45;;;3.40;;
30892;SDS011;17595;50.884;4.346;2022-10-24T08:21:56;12.30;;;2.80;;
30892;SDS011;17595;50.884;4.346;2022-10-24T08:24:22;10.95;;;2.78;;
30892;SDS011;17595;50.884;4.346;2022-10-24T08:26:47;16.48;;;2.85;;
30892;SDS011;17595;50.884;4.346;2022-10-24T08:29:13;20.00;;;3.47;;
30892;SDS011;17595;50.884;4.346;2022-10-24T08:31:47;15.00;;;2.55;;
30892;SDS011;17595;50.884;4.346;2022-10-24T08:34:13;13.00;;;2.83;;
30892;SDS011;17595;50.884;4.346;2022-10-24T08:36:40;12.38;;;2.47;;
30892;SDS011;17595;50.884;4.346;2022-10-24T08:39:06;12.00;;;2.65;;
30892;SDS011;17595;50.884;4.346;2022-10-24T08:41:36;12.93;;;2.67;;
30892;SDS011;17595;50.884;4.346;2022-10-24T08:50:12;13.52;;;2.55;;
30892;SDS011;17595;50.884;4.346;2022-10-24T08:52:47;13.57;;;2.55;;
30892;SDS011;17595;50.884;4.346;2022-10-24T08:55:18;15.88;;;3.05;;
30892;SDS011;17595;50.884;4.346;2022-10-24T08:57:48;18.48;;;3.22;;
30892;SDS011;17595;50.884;4.346;2022-10-24T09:00:21;20.40;;;3.05;;
30892;SDS011;17595;50.884;4.346;2022-10-24T09:02:49;11.52;;;2.50;;
30892;SDS011;17595;50.884;4.346;2022-10-24T09:05:27;12.27;;;2.17;;
30892;SDS011;17595;50.884;4.346;2022-10-24T09:08:04;12.48;;;2.70;;
30892;SDS011;17595;50.884;4.346;2022-10-24T09:10:56;17.75;;;2.88;;
30892;SDS011;17595;50.884;4.346;2022-10-24T09:13:27;16.00;;;2.50;;
30892;SDS011;17595;50.884;4.346;2022-10-24T09:15:56;15.93;;;2.63;;
30892;SDS011;17595;50.884;4.346;2022-10-24T09:18:28;21.73;;;3.35;;
30892;SDS011;17595;50.884;4.346;2022-10-24T09:21:01;14.98;;;3.22;;
30892;SDS011;17595;50.884;4.346;2022-10-24T09:23:29;17.27;;;3.00;;
30892;SDS011;17595;50.884;4.346;2022-10-24T09:25:58;12.10;;;2.60;;
30892;SDS011;17595;50.884;4.346;2022-10-24T09:28:23;18.98;;;2.90;;
30892;SDS011;17595;50.884;4.346;2022-10-24T09:30:50;11.73;;;2.63;;
30892;SDS011;17595;50.884;4.346;2022-10-24T09:35:54;13.27;;;2.47;;
30892;SDS011;17595;50.884;4.346;2022-10-24T09:38:26;8.95;;;2.03;;
30892;SDS011;17595;50.884;4.346;2022-10-24T09:40:59;13.20;;;2.70;;
30892;SDS011;17595;50.884;4.346;2022-10-24T09:46:02;14.88;;;2.55;;
30892;SDS011;17595;50.884;4.346;2022-10-24T09:51:17;13.68;;;2.40;;
30892;SDS011;17595;50.884;4.346;2022-10-24T10:02:11;8.73;;;2.35;;
30892;SDS011;17595;50.884;4.346;2022-10-24T10:04:43;17.17;;;2.83;;
30892;SDS011;17595;50.884;4.346;2022-10-24T10:07:11;14.57;;;2.92;;
30892;SDS011;17595;50.884;4.346;2022-10-24T10:09:53;11.93;;;2.63;;
30892;SDS011;17595;50.884;4.346;2022-10-24T10:12:25;15.88;;;2.80;;
30892;SDS011;17595;50.884;4.346;2022-10-24T10:14:51;16.15;;;2.40;;
30892;SDS011;17595;50.884;4.346;2022-10-24T10:17:21;11.00;;;2.67;;
30892;SDS011;17595;50.884;4.346;2022-10-24T10:19:50;14.50;;;2.60;;
30892;SDS011;17595;50.884;4.346;2022-10-24T10:22:24;16.48;;;2.22;;
30892;SDS011;17595;50.884;4.346;2022-10-24T10:24:51;11.50;;;2.60;;
30892;SDS011;17595;50.884;4.346;2022-10-24T10:27:38;19.13;;;2.83;;
30892;SDS011;17595;50.884;4.346;2022-10-24T10:35:47;11.82;;;2.33;;
30892;SDS011;17595;50.884;4.346;2022-10-24T10:44:04;15.27;;;2.40;;
30892;SDS011;17595;50.884;4.346;2022-10-24T10:47:10;14.88;;;2.42;;
30892;SDS011;17595;50.884;4.346;2022-10-24T10:49:42;14.05;;;2.70;;
30892;SDS011;17595;50.884;4.346;2022-10-24T11:02:53;7.45;;;2.03;;
30892;SDS011;17595;50.884;4.346;2022-10-24T11:05:45;12.85;;;2.40;;
30892;SDS011;17595;50.884;4.346;2022-10-24T11:11:14;7.32;;;1.90;;
30892;SDS011;17595;50.884;4.346;2022-10-24T11:16:53;9.48;;;2.50;;
30892;SDS011;17595;50.884;4.346;2022-10-24T11:19:25;9.43;;;2.22;;
30892;SDS011;17595;50.884;4.346;2022-10-24T11:21:56;10.35;;;2.63;;
30892;SDS011;17595;50.884;4.346;2022-10-24T11:24:27;19.63;;;2.92;;
30892;SDS011;17595;50.884;4.346;2022-10-24T11:27:03;7.28;;;2.05;;
30892;SDS011;17595;50.884;4.346;2022-10-24T11:35:21;8.60;;;2.63;;
30892;SDS011;17595;50.884;4.346;2022-10-24T11:40:54;10.25;;;1.77;;
30892;SDS011;17595;50.884;4.346;2022-10-24T11:43:27;9.70;;;2.10;;
30892;SDS011;17595;50.884;4.346;2022-10-24T11:51:23;11.75;;;2.38;;
30892;SDS011;17595;50.884;4.346;2022-10-24T11:54:11;11.15;;;2.20;;
30892;SDS011;17595;50.884;4.346;2022-10-24T11:57:07;8.07;;;1.98;;
30892;SDS011;17595;50.884;4.346;2022-10-24T11:59:45;10.40;;;2.03;;
30892;SDS011;17595;50.884;4.346;2022-10-24T12:11:06;12.25;;;2.22;;
30892;SDS011;17595;50.884;4.346;2022-10-24T12:16:31;10.57;;;2.22;;
30892;SDS011;17595;50.884;4.346;2022-10-24T12:19:10;10.75;;;2.17;;
30892;SDS011;17595;50.884;4.346;2022-10-24T12:21:44;10.68;;;1.90;;
30892;SDS011;17595;50.884;4.346;2022-10-24T12:24:31;6.57;;;1.40;;
30892;SDS011;17595;50.884;4.346;2022-10-24T12:27:04;8.68;;;1.52;;
30892;SDS011;17595;50.884;4.346;2022-10-24T12:29:32;6.80;;;1.77;;
30892;SDS011;17595;50.884;4.346;2022-10-24T12:32:21;6.55;;;1.45;;
30892;SDS011;17595;50.884;4.346;2022-10-24T12:34:56;5.43;;;1.48;;
30892;SDS011;17595;50.884;4.346;2022-10-24T12:39:50;11.50;;;1.73;;
30892;SDS011;17595;50.884;4.346;2022-10-24T12:47:30;7.50;;;2.05;;
30892;SDS011;17595;50.884;4.346;2022-10-24T12:49:56;11.10;;;1.67;;
30892;SDS011;17595;50.884;4.346;2022-10-24T12:57:56;5.97;;;1.45;;
30892;SDS011;17595;50.884;4.346;2022-10-24T13:00:23;11.30;;;1.90;;
30892;SDS011;17595;50.884;4.346;2022-10-24T13:20:16;7.25;;;1.58;;
30892;SDS011;17595;50.884;4.346;2022-10-24T13:22:47;9.57;;;1.98;;
30892;SDS011;17595;50.884;4.346;2022-10-24T13:28:43;4.38;;;1.27;;
30892;SDS011;17595;50.884;4.346;2022-10-24T13:30:43;7.93;;;1.85;;
30892;SDS011;17595;50.884;4.346;2022-10-24T13:41:28;4.80;;;1.00;;
30892;SDS011;17595;50.884;4.346;2022-10-24T13:43:55;8.30;;;1.40;;
30892;SDS011;17595;50.884;4.346;2022-10-24T13:46:34;5.50;;;1.48;;
30892;SDS011;17595;50.884;4.346;2022-10-24T13:50:16;7.05;;;2.13;;
30892;SDS011;17595;50.884;4.346;2022-10-24T13:52:34;6.03;;;1.42;;
30892;SDS011;17595;50.884;4.346;2022-10-24T13:58:21;4.28;;;1.38;;
30892;SDS011;17595;50.884;4.346;2022-10-24T14:00:53;9.07;;;1.58;;
30892;SDS011;17595;50.884;4.346;2022-10-24T14:03:23;11.07;;;1.23;;
30892;SDS011;17595;50.884;4.346;2022-10-24T14:05:51;7.13;;;1.65;;
30892;SDS011;17595;50.884;4.346;2022-10-24T14:08:32;5.57;;;1.95;;
30892;SDS011;17595;50.884;4.346;2022-10-24T14:11:04;9.68;;;1.90;;
30892;SDS011;17595;50.884;4.346;2022-10-24T14:13:33;7.30;;;1.33;;
30892;SDS011;17595;50.884;4.346;2022-10-24T14:16:03;6.72;;;1.38;;
30892;SDS011;17595;50.884;4.346;2022-10-24T14:18:31;7.68;;;1.80;;
30892;SDS011;17595;50.884;4.346;2022-10-24T14:20:58;8.18;;;1.95;;
30892;SDS011;17595;50.884;4.346;2022-10-24T14:23:27;9.68;;;2.92;;
30892;SDS011;17595;50.884;4.346;2022-10-24T14:26:04;10.93;;;2.00;;
30892;SDS011;17595;50.884;4.346;2022-10-24T14:28:33;11.50;;;2.35;;
30892;SDS011;17595;50.884;4.346;2022-10-24T14:31:17;9.77;;;1.98;;
30892;SDS011;17595;50.884;4.346;2022-10-24T14:33:46;8.60;;;1.92;;
30892;SDS011;17595;50.884;4.346;2022-10-24T14:36:14;7.20;;;1.75;;
30892;SDS011;17595;50.884;4.346;2022-10-24T14:38:48;7.63;;;1.30;;
30892;SDS011;17595;50.884;4.346;2022-10-24T14:41:15;7.20;;;1.70;;
30892;SDS011;17595;50.884;4.346;2022-10-24T14:43:42;9.15;;;2.95;;
30892;SDS011;17595;50.884;4.346;2022-10-24T14:48:38;10.27;;;3.20;;
30892;SDS011;17595;50.884;4.346;2022-10-24T14:53:40;11.38;;;4.63;;
30892;SDS011;17595;50.884;4.346;2022-10-24T14:58:54;8.27;;;2.85;;
30892;SDS011;17595;50.884;4.346;2022-10-24T15:01:22;8.55;;;2.10;;
30892;SDS011;17595;50.884;4.346;2022-10-24T15:03:52;11.18;;;2.33;;
30892;SDS011;17595;50.884;4.346;2022-10-24T15:06:24;8.05;;;2.58;;
30892;SDS011;17595;50.884;4.346;2022-10-24T15:09:05;11.10;;;2.63;;
30892;SDS011;17595;50.884;4.346;2022-10-24T15:11:43;8.32;;;1.98;;
30892;SDS011;17595;50.884;4.346;2022-10-24T15:16:55;7.88;;;2.17;;
30892;SDS011;17595;50.884;4.346;2022-10-24T15:19:21;10.18;;;2.70;;
30892;SDS011;17595;50.884;4.346;2022-10-24T15:21:46;11.50;;;2.22;;
30892;SDS011;17595;50.884;4.346;2022-10-24T15:24:19;11.38;;;2.30;;
30892;SDS011;17595;50.884;4.346;2022-10-24T15:26:47;8.32;;;2.03;;
30892;SDS011;17595;50.884;4.346;2022-10-24T15:31:39;8.10;;;1.95;;
30892;SDS011;17595;50.884;4.346;2022-10-24T15:34:06;11.18;;;2.47;;
30892;SDS011;17595;50.884;4.346;2022-10-24T15:36:39;10.43;;;2.10;;
30892;SDS011;17595;50.884;4.346;2022-10-24T15:41:35;10.38;;;1.65;;
30892;SDS011;17595;50.884;4.346;2022-10-24T15:44:01;8.05;;;2.17;;
30892;SDS011;17595;50.884;4.346;2022-10-24T15:46:30;8.95;;;2.63;;
30892;SDS011;17595;50.884;4.346;2022-10-24T15:48:55;7.03;;;1.83;;
30892;SDS011;17595;50.884;4.346;2022-10-24T15:51:22;8.25;;;2.08;;
30892;SDS011;17595;50.884;4.346;2022-10-24T15:53:48;8.55;;;2.42;;
30892;SDS011;17595;50.884;4.346;2022-10-24T15:56:14;10.60;;;2.17;;
30892;SDS011;17595;50.884;4.346;2022-10-24T15:58:40;15.75;;;2.50;;
30892;SDS011;17595;50.884;4.346;2022-10-24T16:01:08;10.23;;;3.38;;
30892;SDS011;17595;50.884;4.346;2022-10-24T16:03:59;10.23;;;2.22;;
30892;SDS011;17595;50.884;4.346;2022-10-24T16:06:26;8.00;;;2.13;;
30892;SDS011;17595;50.884;4.346;2022-10-24T16:08:52;9.60;;;2.33;;
30892;SDS011;17595;50.884;4.346;2022-10-24T16:11:18;9.73;;;2.00;;
30892;SDS011;17595;50.884;4.346;2022-10-24T16:13:44;10.70;;;2.20;;
30892;SDS011;17595;50.884;4.346;2022-10-24T16:16:09;8.05;;;2.22;;
30892;SDS011;17595;50.884;4.346;2022-10-24T16:18:35;7.43;;;2.08;;
30892;SDS011;17595;50.884;4.346;2022-10-24T16:21:01;6.85;;;2.10;;
30892;SDS011;17595;50.884;4.346;2022-10-24T16:23:29;11.73;;;2.80;;
30892;SDS011;17595;50.884;4.346;2022-10-24T16:25:55;7.88;;;2.30;;
30892;SDS011;17595;50.884;4.346;2022-10-24T16:28:20;12.35;;;2.80;;
30892;SDS011;17595;50.884;4.346;2022-10-24T16:30:47;10.52;;;2.40;;
30892;SDS011;17595;50.884;4.346;2022-10-24T16:33:13;10.00;;;2.30;;
30892;SDS011;17595;50.884;4.346;2022-10-24T16:35:41;11.50;;;2.70;;
30892;SDS011;17595;50.884;4.346;2022-10-24T16:38:07;12.25;;;2.67;;
30892;SDS011;17595;50.884;4.346;2022-10-24T16:40:37;13.25;;;2.97;;
30892;SDS011;17595;50.884;4.346;2022-10-24T16:43:04;11.95;;;2.90;;
30892;SDS011;17595;50.884;4.346;2022-10-24T16:45:31;11.43;;;2.65;;
30892;SDS011;17595;50.884;4.346;2022-10-24T16:47:57;13.77;;;3.35;;
30892;SDS011;17595;50.884;4.346;2022-10-24T16:50:23;14.02;;;3.60;;
30892;SDS011;17595;50.884;4.346;2022-10-24T16:52:54;9.60;;;3.30;;
30892;SDS011;17595;50.884;4.346;2022-10-24T16:55:23;8.60;;;2.70;;
30892;SDS011;17595;50.884;4.346;2022-10-24T16:57:49;11.02;;;3.05;;
30892;SDS011;17595;50.884;4.346;2022-10-24T17:00:15;12.65;;;3.60;;
30892;SDS011;17595;50.884;4.346;2022-10-24T17:02:43;10.52;;;4.25;;
30892;SDS011;17595;50.884;4.346;2022-10-24T17:05:11;21.17;;;6.65;;
30892;SDS011;17595;50.884;4.346;2022-10-24T17:07:37;17.10;;;5.22;;
30892;SDS011;17595;50.884;4.346;2022-10-24T17:10:03;16.27;;;4.03;;
30892;SDS011;17595;50.884;4.346;2022-10-24T17:12:29;12.60;;;4.20;;
30892;SDS011;17595;50.884;4.346;2022-10-24T17:14:55;13.70;;;4.32;;
30892;SDS011;17595;50.884;4.346;2022-10-24T17:17:20;16.65;;;4.20;;
30892;SDS011;17595;50.884;4.346;2022-10-24T17:19:46;15.35;;;4.13;;
30892;SDS011;17595;50.884;4.346;2022-10-24T17:22:12;11.18;;;3.95;;
30892;SDS011;17595;50.884;4.346;2022-10-24T17:24:38;17.75;;;4.45;;
30892;SDS011;17595;50.884;4.346;2022-10-24T17:27:08;19.95;;;4.15;;
30892;SDS011;17595;50.884;4.346;2022-10-24T17:29:35;22.08;;;4.50;;
30892;SDS011;17595;50.884;4.346;2022-10-24T17:32:02;9.45;;;2.03;;
30892;SDS011;17595;50.884;4.346;2022-10-24T17:34:29;11.23;;;2.22;;
30892;SDS011;17595;50.884;4.346;2022-10-24T17:40:02;14.60;;;2.08;;